createdAt,value
2022-07-25T00:01:47.154Z,98227.44
2022-07-25T00:04:14.766Z,98225.69
2022-07-25T00:06:42.311Z,98217.34
2022-07-25T00:09:09.650Z,98220.50
2022-07-25T00:11:36.966Z,98220.25
2022-07-25T00:14:04.775Z,98204.72
2022-07-25T00:16:32.116Z,98209.53
2022-07-25T00:18:58.916Z,98202.25
2022-07-25T00:21:25.548Z,98197.88
2022-07-25T00:23:52.149Z,98196.41
2022-07-25T00:26:18.809Z,98199.19
2022-07-25T00:28:45.344Z,98194.50
2022-07-25T00:31:11.957Z,98190.50
2022-07-25T00:33:40.099Z,98193.63
2022-07-25T00:36:08.656Z,98193.09
2022-07-25T00:38:35.354Z,98188.44
2022-07-25T00:41:04.271Z,98183.94
2022-07-25T00:43:31.261Z,98189.50
2022-07-25T00:45:59.359Z,98189.19
2022-07-25T00:48:28.379Z,98190.31
2022-07-25T00:50:59.663Z,98192.75
2022-07-25T00:53:26.314Z,98188.72
2022-07-25T00:55:53.203Z,98187.25
2022-07-25T00:58:19.840Z,98184.34
2022-07-25T01:00:47.776Z,98192.50
2022-07-25T01:03:15.623Z,98186.47
2022-07-25T01:05:42.431Z,98182.75
2022-07-25T01:08:10.262Z,98187.19
2022-07-25T01:10:37.987Z,98183.53
2022-07-25T01:13:05.734Z,98180.88
2022-07-25T01:15:32.445Z,98171.75
2022-07-25T01:17:59.001Z,98171.91
2022-07-25T01:20:29.225Z,98162.56
2022-07-25T01:22:56.495Z,98161.06
2022-07-25T01:25:24.356Z,98152.00
2022-07-25T01:27:55.790Z,98151.78
2022-07-25T01:30:24.574Z,98156.72
2022-07-25T01:32:51.915Z,98155.06
2022-07-25T01:35:18.571Z,98151.03
2022-07-25T01:37:45.863Z,98149.34
2022-07-25T01:40:14.437Z,98154.66
2022-07-25T01:42:42.974Z,98149.66
2022-07-25T01:45:12.235Z,98143.34
2022-07-25T01:47:38.996Z,98144.34
2022-07-25T01:50:06.848Z,98135.81
2022-07-25T01:52:33.467Z,98133.06
2022-07-25T01:54:59.980Z,98138.81
2022-07-25T01:57:31.131Z,98130.19
2022-07-25T01:59:59.280Z,98130.47
2022-07-25T02:02:25.984Z,98127.44
2022-07-25T02:04:52.672Z,98126.06
2022-07-25T02:07:19.566Z,98125.09
2022-07-25T02:09:46.165Z,98122.97
2022-07-25T02:12:12.800Z,98121.84
2022-07-25T02:14:39.443Z,98113.88
2022-07-25T02:17:06.182Z,98115.16
2022-07-25T02:19:33.232Z,98115.22
2022-07-25T02:22:00.637Z,98125.28
2022-07-25T02:24:27.277Z,98115.28
2022-07-25T02:26:53.924Z,98114.88
2022-07-25T02:29:21.996Z,98115.88
2022-07-25T02:31:49.001Z,98110.56
2022-07-25T02:34:15.703Z,98111.94
2022-07-25T02:36:42.765Z,98109.03
2022-07-25T02:39:09.402Z,98103.72
2022-07-25T02:41:36.045Z,98105.69
2022-07-25T02:44:02.731Z,98100.28
2022-07-25T02:46:29.468Z,98095.72
2022-07-25T02:48:56.168Z,98098.66
2022-07-25T02:51:22.730Z,98091.53
2022-07-25T02:53:57.880Z,98090.41
2022-07-25T02:56:35.569Z,98081.38
2022-07-25T02:59:02.081Z,98084.84
2022-07-25T03:01:28.979Z,98085.31
2022-07-25T03:03:55.950Z,98075.97
2022-07-25T03:06:22.579Z,98073.97
2022-07-25T03:08:49.130Z,98072.69
2022-07-25T03:11:16.709Z,98072.03
2022-07-25T03:13:43.582Z,98068.28
2022-07-25T03:16:10.452Z,98073.22
2022-07-25T03:18:37.332Z,98064.44
2022-07-25T03:21:04.317Z,98064.66
2022-07-25T03:23:31.069Z,98059.88
2022-07-25T03:25:57.856Z,98054.81
2022-07-25T03:28:25.115Z,98057.94
2022-07-25T03:30:52.821Z,98063.13
2022-07-25T03:33:19.618Z,98057.00
2022-07-25T03:35:46.426Z,98059.94
2022-07-25T03:38:13.085Z,98056.84
2022-07-25T03:40:39.658Z,98056.31
2022-07-25T03:43:06.323Z,98049.59
2022-07-25T03:45:32.906Z,98046.50
2022-07-25T03:47:59.473Z,98039.69
2022-07-25T03:50:25.998Z,98045.56
2022-07-25T03:52:52.511Z,98043.56
2022-07-25T03:55:19.048Z,98036.00
2022-07-25T03:57:45.590Z,98037.53
2022-07-25T04:00:12.580Z,98035.31
2022-07-25T04:02:39.444Z,98031.84
2022-07-25T04:05:08.911Z,98033.25
2022-07-25T04:07:37.233Z,98036.44
2022-07-25T04:10:07.029Z,98025.16
2022-07-25T04:12:33.896Z,98028.94
2022-07-25T04:15:00.465Z,98023.34
2022-07-25T04:17:27.018Z,98022.97
2022-07-25T04:19:53.628Z,98015.28
2022-07-25T04:22:20.284Z,98016.00
2022-07-25T04:24:46.967Z,98019.19
2022-07-25T04:27:13.824Z,98012.06
2022-07-25T04:29:40.341Z,98009.06
2022-07-25T04:32:07.270Z,98001.81
2022-07-25T04:34:33.893Z,98007.09
2022-07-25T04:37:00.422Z,98006.66
2022-07-25T04:39:26.932Z,98002.84
2022-07-25T04:41:53.471Z,98000.19
2022-07-25T04:44:20.022Z,97997.53
2022-07-25T04:46:46.534Z,97995.34
2022-07-25T04:49:13.208Z,97995.63
2022-07-25T04:51:39.712Z,97990.34
2022-07-25T04:54:06.837Z,97988.38
2022-07-25T04:56:33.633Z,97982.06
2022-07-25T04:59:06.595Z,97982.59
2022-07-25T05:01:33.901Z,97978.50
2022-07-25T05:04:00.605Z,97977.75
2022-07-25T05:06:27.164Z,97973.91
2022-07-25T05:08:53.713Z,97977.59
2022-07-25T05:11:20.299Z,97966.75
2022-07-25T05:13:46.826Z,97961.38
2022-07-25T05:16:13.447Z,97964.06
2022-07-25T05:18:40.123Z,97955.34
2022-07-25T05:21:11.368Z,97961.00
2022-07-25T05:23:38.004Z,97964.56
2022-07-25T05:26:04.635Z,97956.34
2022-07-25T05:28:31.140Z,97958.09
2022-07-25T05:30:57.682Z,97956.00
2022-07-25T05:33:24.216Z,97956.69
2022-07-25T05:35:50.736Z,97959.06
2022-07-25T05:38:17.352Z,97955.59
2022-07-25T05:40:45.749Z,97949.50
2022-07-25T05:43:12.288Z,97942.53
2022-07-25T05:45:38.789Z,97953.03
2022-07-25T05:48:05.484Z,97952.09
2022-07-25T05:50:32.115Z,97949.97
2022-07-25T05:52:58.656Z,97940.47
2022-07-25T05:55:25.217Z,97935.16
2022-07-25T05:57:51.726Z,97930.53
2022-07-25T06:00:18.349Z,97935.53
2022-07-25T06:02:45.157Z,97938.19
2022-07-25T06:05:11.741Z,97928.38
2022-07-25T06:07:38.294Z,97932.69
2022-07-25T06:10:05.648Z,97925.38
2022-07-25T06:12:33.566Z,97925.03
2022-07-25T06:15:04.000Z,97924.03
2022-07-25T06:17:32.524Z,97915.03
2022-07-25T06:19:59.403Z,97920.00
2022-07-25T06:22:26.010Z,97907.13
2022-07-25T06:24:52.525Z,97910.06
2022-07-25T06:27:21.600Z,97904.16
2022-07-25T06:29:49.704Z,97909.81
2022-07-25T06:32:16.274Z,97914.25
2022-07-25T06:34:42.964Z,97914.13
2022-07-25T06:37:09.547Z,97907.31
2022-07-25T06:39:36.244Z,97911.84
2022-07-25T06:42:04.072Z,97910.53
2022-07-25T06:44:35.066Z,97908.81
2022-07-25T06:47:03.039Z,97901.94
2022-07-25T06:49:29.680Z,97899.38
2022-07-25T06:51:56.196Z,97900.66
2022-07-25T06:54:23.001Z,97900.06
2022-07-25T06:56:49.607Z,97897.41
2022-07-25T06:59:16.217Z,97894.81
2022-07-25T07:01:42.723Z,97887.34
2022-07-25T07:04:09.570Z,97884.22
2022-07-25T07:06:37.576Z,97886.84
2022-07-25T07:09:04.208Z,97875.84
2022-07-25T07:11:30.795Z,97876.16
2022-07-25T07:13:57.338Z,97874.44
2022-07-25T07:16:23.957Z,97865.25
2022-07-25T07:18:50.516Z,97866.41
2022-07-25T07:21:21.344Z,97870.38
2022-07-25T07:23:49.259Z,97872.91
2022-07-25T07:26:20.071Z,97866.34
2022-07-25T07:28:46.623Z,97862.69
2022-07-25T07:31:16.766Z,97855.66
2022-07-25T07:33:44.144Z,97855.66
2022-07-25T07:36:10.854Z,97859.59
2022-07-25T07:38:37.473Z,97867.69
2022-07-25T07:41:04.058Z,97862.69
2022-07-25T07:43:31.796Z,97859.41
2022-07-25T07:46:00.735Z,97851.09
2022-07-25T07:48:32.372Z,97850.19
2022-07-25T07:51:01.381Z,97842.31
2022-07-25T07:53:47.339Z,97843.25
2022-07-25T07:56:15.712Z,97845.28
2022-07-25T07:58:42.707Z,97838.38
2022-07-25T08:01:09.310Z,97838.09
2022-07-25T08:03:36.081Z,97827.53
2022-07-25T08:06:03.596Z,97829.41
2022-07-25T08:08:31.612Z,97829.41
2022-07-25T08:10:59.779Z,97830.81
2022-07-25T08:13:31.720Z,97832.44
2022-07-25T08:16:03.323Z,97834.06
2022-07-25T08:18:32.742Z,97830.13
2022-07-25T08:21:04.051Z,97829.72
2022-07-25T08:23:31.881Z,97825.00
2022-07-25T08:25:59.341Z,97824.38
2022-07-25T08:28:25.946Z,97826.03
2022-07-25T08:30:52.769Z,97825.81
2022-07-25T08:33:19.477Z,97831.16
2022-07-25T08:35:53.458Z,97826.53
2022-07-25T08:38:23.902Z,97828.97
2022-07-25T08:40:51.068Z,97824.56
2022-07-25T08:43:18.960Z,97824.06
2022-07-25T08:45:49.219Z,97816.75
2022-07-25T08:48:26.378Z,97820.00
2022-07-25T08:50:56.944Z,97828.53
2022-07-25T08:53:34.075Z,97829.59
2022-07-25T08:56:09.996Z,97826.59
2022-07-25T08:58:40.215Z,97816.72
2022-07-25T09:01:07.919Z,97816.34
2022-07-25T09:03:36.134Z,97801.34
2022-07-25T09:06:15.341Z,97806.63
2022-07-25T09:09:00.629Z,97801.91
2022-07-25T09:11:33.822Z,97791.06
2022-07-25T09:14:14.861Z,97791.13
2022-07-25T09:16:44.986Z,97791.34
2022-07-25T09:19:23.739Z,97796.66
2022-07-25T09:22:07.421Z,97794.63
2022-07-25T09:24:37.119Z,97793.84
2022-07-25T09:27:12.349Z,97792.69
2022-07-25T09:29:42.457Z,97793.16
2022-07-25T09:32:21.992Z,97798.25
2022-07-25T09:34:50.946Z,97804.47
2022-07-25T09:37:25.423Z,97792.63
2022-07-25T09:39:52.899Z,97798.19
2022-07-25T09:42:32.575Z,97793.44
2022-07-25T09:45:12.839Z,97788.03
2022-07-25T09:47:58.294Z,97795.91
2022-07-25T09:50:28.457Z,97796.28
2022-07-25T09:52:58.160Z,97795.22
2022-07-25T09:55:25.076Z,97801.06
2022-07-25T09:57:52.632Z,97799.19
2022-07-25T10:00:24.545Z,97790.38
2022-07-25T10:03:26.386Z,97780.03
2022-07-25T10:06:08.453Z,97775.66
2022-07-25T10:08:40.181Z,97773.34
2022-07-25T10:11:22.619Z,97783.34
2022-07-25T10:13:50.210Z,97779.81
2022-07-25T10:16:23.993Z,97785.31
2022-07-25T10:18:57.282Z,97788.59
2022-07-25T10:21:28.227Z,97793.44
2022-07-25T10:24:10.859Z,97793.44
2022-07-25T10:26:50.891Z,97795.09
2022-07-25T10:29:17.737Z,97795.56
2022-07-25T10:31:51.577Z,97803.66
2022-07-25T10:34:33.093Z,97803.47
2022-07-25T10:37:16.018Z,97816.19
2022-07-25T10:39:48.643Z,97805.69
2022-07-25T10:42:21.054Z,97796.69
2022-07-25T10:44:57.421Z,97812.88
2022-07-25T10:47:27.547Z,97810.69
2022-07-25T10:53:00.526Z,97830.25
2022-07-25T10:55:29.504Z,97832.63
2022-07-25T10:58:19.479Z,97828.44
2022-07-25T11:00:46.124Z,97832.88
2022-07-25T11:03:17.840Z,97839.47
2022-07-25T11:05:47.320Z,97839.28
2022-07-25T11:08:22.596Z,97841.84
2022-07-25T11:10:53.253Z,97835.38
2022-07-25T11:13:20.118Z,97839.19
2022-07-25T11:15:47.621Z,97837.00
2022-07-25T11:18:14.181Z,97839.41
2022-07-25T11:20:41.040Z,97842.84
2022-07-25T11:23:07.604Z,97840.06
2022-07-25T11:25:34.165Z,97844.69
2022-07-25T11:28:03.078Z,97852.44
2022-07-25T11:30:29.758Z,97849.63
2022-07-25T11:33:01.477Z,97842.66
2022-07-25T11:35:34.349Z,97839.91
2022-07-25T11:38:03.294Z,97845.97
2022-07-25T11:40:31.419Z,97843.13
2022-07-25T11:42:59.557Z,97837.28
2022-07-25T11:45:33.590Z,97813.72
2022-07-25T11:48:14.526Z,97811.00
2022-07-25T11:50:44.603Z,97827.00
2022-07-25T11:53:16.105Z,97824.53
2022-07-25T11:55:43.987Z,97820.03
2022-07-25T11:58:13.415Z,97820.53
2022-07-25T12:00:46.530Z,97823.25
2022-07-25T12:03:20.948Z,97836.00
2022-07-25T12:05:49.632Z,97828.53
2022-07-25T12:08:25.001Z,97819.84
2022-07-25T12:10:51.845Z,97832.31
2022-07-25T12:13:25.590Z,97834.69
2022-07-25T12:15:52.510Z,97839.78
2022-07-25T12:18:19.265Z,97826.25
2022-07-25T12:20:45.830Z,97826.06
2022-07-25T12:23:14.172Z,97829.25
2022-07-25T12:25:44.434Z,97828.06
2022-07-25T12:28:11.973Z,97831.13
2022-07-25T12:30:41.106Z,97827.47
2022-07-25T12:33:08.830Z,97821.50
2022-07-25T12:35:37.416Z,97817.22
2022-07-25T12:38:05.070Z,97822.28
2022-07-25T12:40:32.407Z,97819.94
2022-07-25T12:42:59.393Z,97819.22
2022-07-25T12:45:26.302Z,97814.06
2022-07-25T12:47:52.959Z,97828.78
2022-07-25T12:50:19.620Z,97825.34
2022-07-25T12:52:47.488Z,97822.38
2022-07-25T12:55:19.761Z,97809.84
2022-07-25T12:57:47.342Z,97808.63
2022-07-25T13:00:18.342Z,97810.38
2022-07-25T13:02:44.997Z,97795.41
2022-07-25T13:05:11.915Z,97798.03
2022-07-25T13:07:38.857Z,97799.03
2022-07-25T13:10:07.083Z,97790.53
2022-07-25T13:12:33.842Z,97785.69
2022-07-25T13:15:00.453Z,97791.59
2022-07-25T13:17:28.069Z,97792.84
2022-07-25T13:19:56.452Z,97785.19
2022-07-25T13:22:25.258Z,97784.53
2022-07-25T13:24:52.890Z,97783.44
2022-07-25T13:27:21.831Z,97783.56
2022-07-25T13:29:54.120Z,97785.41
2022-07-25T13:32:22.268Z,97776.38
2022-07-25T13:34:48.935Z,97765.06
2022-07-25T13:37:15.575Z,97766.41
2022-07-25T13:39:42.345Z,97766.91
2022-07-25T13:42:10.049Z,97768.41
2022-07-25T13:44:36.669Z,97773.56
2022-07-25T13:47:03.860Z,97769.34
2022-07-25T13:49:32.027Z,97772.06
2022-07-25T13:51:58.627Z,97778.56
2022-07-25T13:54:25.170Z,97806.84
2022-07-25T13:56:51.814Z,97802.94
2022-07-25T13:59:21.414Z,97804.75
2022-07-25T14:01:49.527Z,97809.94
2022-07-25T14:04:17.040Z,97804.44
2022-07-25T14:06:43.946Z,97802.69
2022-07-25T14:09:10.897Z,97814.31
2022-07-25T14:11:37.671Z,97814.41
2022-07-25T14:14:04.201Z,97816.75
2022-07-25T14:16:31.008Z,97819.81
2022-07-25T14:18:57.643Z,97822.28
2022-07-25T14:21:24.210Z,97814.16
2022-07-25T14:23:52.415Z,97827.91
2022-07-25T14:26:19.249Z,97828.47
2022-07-25T14:28:45.830Z,97827.22
2022-07-25T14:31:12.520Z,97818.25
2022-07-25T14:33:40.046Z,97819.22
2022-07-25T14:36:09.659Z,97821.34
2022-07-25T14:38:38.768Z,97825.44
2022-07-25T14:41:12.570Z,97819.22
2022-07-25T14:43:41.207Z,97825.94
2022-07-25T14:46:08.901Z,97829.72
2022-07-25T14:48:37.848Z,97831.94
2022-07-25T14:51:05.772Z,97832.56
2022-07-25T14:53:33.947Z,97834.06
2022-07-25T14:56:03.079Z,97844.66
2022-07-25T14:58:29.746Z,97844.53
2022-07-25T15:00:56.333Z,97840.16
2022-07-25T15:03:23.156Z,97846.50
2022-07-25T15:05:49.696Z,97855.66
2022-07-25T15:08:16.486Z,97858.97
2022-07-25T15:10:43.255Z,97859.94
2022-07-25T15:15:57.565Z,97856.13
2022-07-25T15:18:24.246Z,97855.41
2022-07-25T15:20:51.821Z,97865.50
2022-07-25T15:23:18.562Z,97872.91
2022-07-25T15:26:04.083Z,97867.59
2022-07-25T15:28:37.906Z,97870.41
2022-07-25T15:31:06.090Z,97871.69
2022-07-25T15:33:33.374Z,97875.06
2022-07-25T15:36:00.458Z,97885.88
2022-07-25T15:38:28.894Z,97888.44
2022-07-25T15:40:55.424Z,97878.16
2022-07-25T15:43:21.973Z,97880.50
2022-07-25T15:45:48.551Z,97888.06
2022-07-25T15:48:17.384Z,97892.78
2022-07-25T15:50:48.329Z,97889.19
2022-07-25T15:53:15.624Z,97897.91
2022-07-25T15:55:43.111Z,97881.41
2022-07-25T15:58:11.519Z,97885.22
2022-07-25T16:00:40.010Z,97894.72
2022-07-25T16:03:07.782Z,97897.88
2022-07-25T16:05:35.288Z,97896.13
2022-07-25T16:08:02.928Z,97906.22
2022-07-25T16:10:33.323Z,97911.31
2022-07-25T16:13:01.004Z,97911.25
2022-07-25T16:15:28.303Z,97899.03
2022-07-25T16:18:00.150Z,97905.81
2022-07-25T16:20:31.179Z,97909.94
2022-07-25T16:22:59.004Z,97909.41
2022-07-25T16:25:29.178Z,97946.25
2022-07-25T16:27:58.387Z,97933.69
2022-07-25T16:30:25.778Z,97935.44
2022-07-25T16:32:52.465Z,97938.72
2022-07-25T16:35:19.466Z,97943.47
2022-07-25T16:37:46.169Z,97944.28
2022-07-25T16:40:14.272Z,97956.34
2022-07-25T16:42:40.907Z,97977.22
2022-07-25T16:45:08.436Z,97962.53
2022-07-25T16:47:35.188Z,97969.03
2022-07-25T16:50:01.870Z,97963.47
2022-07-25T16:52:28.442Z,97967.50
2022-07-25T16:54:54.986Z,97969.53
2022-07-25T16:57:23.759Z,97972.63
2022-07-25T16:59:53.163Z,97978.22
2022-07-25T17:02:20.022Z,97986.38
2022-07-25T17:04:46.731Z,97991.81
2022-07-25T17:07:13.433Z,97993.22
2022-07-25T17:09:40.756Z,97994.09
2022-07-25T17:12:07.556Z,98004.50
2022-07-25T17:14:34.565Z,98007.66
2022-07-25T17:17:01.128Z,98008.63
2022-07-25T17:19:27.716Z,98002.91
2022-07-25T17:21:54.261Z,97989.66
2022-07-25T17:24:20.778Z,97985.63
2022-07-25T17:26:47.378Z,97985.00
2022-07-25T17:29:13.923Z,97988.91
2022-07-25T17:31:40.620Z,97986.00
2022-07-25T17:34:07.229Z,97981.03
2022-07-25T17:36:34.129Z,97978.13
2022-07-25T17:39:01.143Z,97980.25
2022-07-25T17:41:27.674Z,97985.19
2022-07-25T17:43:54.279Z,97979.78
2022-07-25T17:46:20.924Z,97984.94
2022-07-25T17:48:47.600Z,97974.44
2022-07-25T17:51:14.190Z,97976.72
2022-07-25T17:53:40.755Z,97979.19
2022-07-25T17:56:08.637Z,97980.66
2022-07-25T17:58:36.929Z,97982.66
2022-07-25T18:01:08.369Z,97984.25
2022-07-25T18:03:37.000Z,97985.91
2022-07-25T18:06:04.942Z,97989.09
2022-07-25T18:08:35.060Z,97987.22
2022-07-25T18:11:03.434Z,97993.72
2022-07-25T18:13:30.064Z,97992.66
2022-07-25T18:15:56.867Z,97999.28
2022-07-25T18:18:23.556Z,97990.63
2022-07-25T18:20:50.101Z,98001.38
2022-07-25T18:23:16.787Z,97996.66
2022-07-25T18:25:46.632Z,98001.19
2022-07-25T18:28:13.238Z,98008.00
2022-07-25T18:30:39.899Z,98003.81
2022-07-25T18:33:07.271Z,98003.63
2022-07-25T18:35:33.891Z,98014.56
2022-07-25T18:38:01.972Z,98015.59
2022-07-25T18:40:29.107Z,98014.13
2022-07-25T18:42:56.186Z,98020.09
2022-07-25T18:45:23.455Z,98018.59
2022-07-25T18:47:50.576Z,98034.69
2022-07-25T18:50:19.790Z,98034.69
2022-07-25T18:52:46.493Z,98038.34
2022-07-25T18:55:13.043Z,98039.78
2022-07-25T18:57:39.613Z,98039.53
2022-07-25T19:00:09.513Z,98045.72
2022-07-25T19:02:36.496Z,98046.53
2022-07-25T19:05:03.478Z,98046.28
2022-07-25T19:07:31.152Z,98049.81
2022-07-25T19:09:57.770Z,98051.00
2022-07-25T19:12:26.468Z,98040.84
2022-07-25T19:14:54.789Z,98046.00
2022-07-25T19:17:21.415Z,98048.00
2022-07-25T19:19:48.069Z,98056.81
2022-07-25T19:22:14.663Z,98053.25
2022-07-25T19:24:41.177Z,98056.78
2022-07-25T19:27:09.278Z,98053.16
2022-07-25T19:29:37.471Z,98052.31
2022-07-25T19:32:04.749Z,98058.81
2022-07-25T19:34:31.335Z,98068.19
2022-07-25T19:36:58.083Z,98067.72
2022-07-25T19:39:24.752Z,98066.09
2022-07-25T19:41:54.174Z,98070.41
2022-07-25T19:44:20.911Z,98069.78
2022-07-25T19:46:48.919Z,98068.50
2022-07-25T19:49:15.810Z,98080.63
2022-07-25T19:51:42.432Z,98075.84
2022-07-25T19:54:09.721Z,98079.91
2022-07-25T19:56:36.693Z,98083.16
2022-07-25T19:59:03.828Z,98089.09
2022-07-25T20:01:34.101Z,98083.00
2022-07-25T20:04:01.890Z,98088.56
2022-07-25T20:06:28.707Z,98087.25
2022-07-25T20:08:55.242Z,98087.25
2022-07-25T20:11:21.846Z,98102.59
2022-07-25T20:13:48.385Z,98101.63
2022-07-25T20:16:14.990Z,98106.72
2022-07-25T20:18:41.589Z,98102.56
2022-07-25T20:21:08.209Z,98105.59
2022-07-25T20:23:34.806Z,98104.66
2022-07-25T20:26:02.258Z,98098.84
2022-07-25T20:28:29.028Z,98107.25
2022-07-25T20:30:57.394Z,98111.28
2022-07-25T20:33:26.890Z,98114.34
2022-07-25T20:35:55.500Z,98119.72
2022-07-25T20:38:22.798Z,98109.25
2022-07-25T20:40:51.019Z,98118.00
2022-07-25T20:43:18.585Z,98116.22
2022-07-25T20:45:45.198Z,98121.38
2022-07-25T20:48:14.580Z,98124.22
2022-07-25T20:50:41.254Z,98128.47
2022-07-25T20:53:08.613Z,98125.13
2022-07-25T20:55:36.658Z,98135.50
2022-07-25T20:58:04.599Z,98137.50
2022-07-25T21:00:31.399Z,98141.53
2022-07-25T21:02:59.821Z,98138.72
2022-07-25T21:05:27.359Z,98142.47
2022-07-25T21:07:54.685Z,98140.66
2022-07-25T21:10:21.723Z,98142.50
2022-07-25T21:12:48.790Z,98146.69
2022-07-25T21:15:15.781Z,98148.91
2022-07-25T21:17:42.364Z,98158.47
2022-07-25T21:20:15.064Z,98161.81
2022-07-25T21:22:43.295Z,98159.03
2022-07-25T21:25:11.287Z,98168.22
2022-07-25T21:27:39.675Z,98164.53
2022-07-25T21:30:09.659Z,98172.88
2022-07-25T21:32:36.309Z,98171.91
2022-07-25T21:35:04.837Z,98174.22
2022-07-25T21:37:31.369Z,98188.06
2022-07-25T21:39:58.011Z,98197.91
2022-07-25T21:42:24.571Z,98197.88
2022-07-25T21:44:51.207Z,98202.72
2022-07-25T21:47:17.900Z,98200.19
2022-07-25T21:50:03.077Z,98198.84
2022-07-25T21:52:34.775Z,98211.19
2022-07-25T21:55:04.006Z,98210.88
2022-07-25T21:57:31.624Z,98205.91
2022-07-25T21:59:58.311Z,98213.41
2022-07-25T22:02:25.394Z,98216.06
2022-07-25T22:04:52.316Z,98202.03
2022-07-25T22:07:19.023Z,98215.69
2022-07-25T22:09:45.744Z,98216.50
2022-07-25T22:12:12.405Z,98218.19
2022-07-25T22:14:39.056Z,98224.28
2022-07-25T22:17:05.691Z,98215.00
2022-07-25T22:19:32.794Z,98219.88
2022-07-25T22:21:59.521Z,98224.91
2022-07-25T22:24:26.089Z,98223.97
2022-07-25T22:26:52.788Z,98226.69
2022-07-25T22:29:19.303Z,98227.63
2022-07-25T22:31:45.914Z,98234.91
2022-07-25T22:34:12.543Z,98234.09
2022-07-25T22:36:39.194Z,98233.97
2022-07-25T22:39:06.240Z,98234.81
2022-07-25T22:41:35.618Z,98235.47
2022-07-25T22:44:03.566Z,98244.16
2022-07-25T22:46:31.925Z,98243.34
2022-07-25T22:48:59.442Z,98247.50
2022-07-25T22:51:27.679Z,98245.84
2022-07-25T22:53:55.655Z,98260.53
2022-07-25T22:56:22.559Z,98253.03
2022-07-25T22:58:49.494Z,98256.22
2022-07-25T23:01:18.576Z,98254.72
2022-07-25T23:03:46.346Z,98248.19
2022-07-25T23:06:13.036Z,98256.00
2022-07-25T23:08:39.558Z,98264.88
2022-07-25T23:11:06.415Z,98248.66
2022-07-25T23:13:34.551Z,98247.13
2022-07-25T23:16:03.256Z,98249.97
2022-07-25T23:18:31.191Z,98244.97
2022-07-25T23:20:57.854Z,98246.31
2022-07-25T23:23:24.575Z,98252.47
2022-07-25T23:25:51.562Z,98248.47
2022-07-25T23:28:18.156Z,98245.81
2022-07-25T23:30:44.719Z,98252.97
2022-07-25T23:33:11.247Z,98246.63
2022-07-25T23:35:37.797Z,98243.84
2022-07-25T23:38:04.835Z,98242.13
2022-07-25T23:40:31.450Z,98242.66
2022-07-25T23:42:58.035Z,98239.66
2022-07-25T23:45:24.953Z,98242.50
2022-07-25T23:47:54.703Z,98242.34
2022-07-25T23:50:22.101Z,98239.50
2022-07-25T23:52:48.646Z,98229.81
2022-07-25T23:55:15.267Z,98236.81
2022-07-25T23:57:42.058Z,98245.50
